createdAt,value
2018-07-03T00:00:50.889Z,0
2018-07-03T00:01:51.610Z,0
2018-07-03T00:02:52.327Z,0
2018-07-03T00:03:53.286Z,0
2018-07-03T00:04:54.013Z,0
2018-07-03T00:05:54.837Z,0
2018-07-03T00:06:55.558Z,0
2018-07-03T00:07:56.276Z,0
2018-07-03T00:08:56.989Z,0
2018-07-03T00:09:57.717Z,0
2018-07-03T00:10:58.428Z,0
2018-07-03T00:11:59.153Z,0
2018-07-03T00:12:59.883Z,0
2018-07-03T00:14:00.596Z,0
2018-07-03T00:15:01.316Z,0
2018-07-03T00:16:02.071Z,0
2018-07-03T00:17:02.768Z,0
2018-07-03T00:18:03.481Z,0
2018-07-03T00:19:04.200Z,0
2018-07-03T00:20:04.930Z,0
2018-07-03T00:21:05.631Z,0
2018-07-03T00:22:06.401Z,0
2018-07-03T00:23:07.135Z,0
2018-07-03T00:24:07.853Z,0
2018-07-03T00:25:08.578Z,0
2018-07-03T00:26:09.291Z,0
2018-07-03T00:27:10.013Z,0
2018-07-03T00:28:10.730Z,0
2018-07-03T00:29:11.747Z,0
2018-07-03T00:30:12.465Z,0
2018-07-03T00:31:13.194Z,0
2018-07-03T00:32:13.924Z,0
2018-07-03T00:33:14.639Z,0
2018-07-03T00:34:15.360Z,0
2018-07-03T00:35:16.084Z,0
2018-07-03T00:36:16.821Z,0
2018-07-03T00:37:17.537Z,0
2018-07-03T00:38:18.241Z,0
2018-07-03T00:39:19.016Z,0
2018-07-03T00:40:19.733Z,0
2018-07-03T00:41:20.460Z,0
2018-07-03T00:42:21.177Z,0
2018-07-03T00:43:21.896Z,0
2018-07-03T00:44:22.686Z,0
2018-07-03T00:45:23.418Z,0
2018-07-03T00:46:24.145Z,0
2018-07-03T00:47:24.860Z,0
2018-07-03T00:48:25.837Z,0
2018-07-03T00:49:26.662Z,0
2018-07-03T00:50:27.376Z,0
2018-07-03T00:51:28.350Z,0
2018-07-03T00:52:29.064Z,0
2018-07-03T00:53:29.781Z,0
2018-07-03T00:54:30.555Z,0
2018-07-03T00:55:31.582Z,0
2018-07-03T00:56:32.233Z,0
2018-07-03T00:57:32.944Z,0
2018-07-03T00:58:33.681Z,0
2018-07-03T00:59:34.392Z,0
2018-07-03T01:00:35.136Z,0
2018-07-03T01:01:35.854Z,0
2018-07-03T01:02:36.572Z,0
2018-07-03T01:03:37.286Z,0
2018-07-03T01:04:38.269Z,0
2018-07-03T01:05:39.002Z,0
2018-07-03T01:06:40.123Z,0
2018-07-03T01:07:40.853Z,0
2018-07-03T01:08:41.600Z,0
2018-07-03T01:09:42.300Z,0
2018-07-03T01:10:43.025Z,0
2018-07-03T01:11:43.764Z,0
2018-07-03T01:12:44.487Z,0
2018-07-03T01:13:45.209Z,0
2018-07-03T01:14:45.938Z,0
2018-07-03T01:15:46.661Z,0
2018-07-03T01:16:47.548Z,0
2018-07-03T01:17:48.265Z,0
2018-07-03T01:18:48.985Z,0
2018-07-03T01:19:49.721Z,0
2018-07-03T01:20:50.451Z,0
2018-07-03T01:21:51.314Z,0
2018-07-03T01:22:52.056Z,0
2018-07-03T01:23:52.779Z,0
2018-07-03T01:24:53.502Z,0
2018-07-03T01:25:54.469Z,0
2018-07-03T01:26:55.202Z,0
2018-07-03T01:27:55.908Z,0
2018-07-03T01:28:56.638Z,0
2018-07-03T01:29:57.357Z,0
2018-07-03T01:30:58.076Z,0
2018-07-03T01:31:58.796Z,0
2018-07-03T01:32:59.529Z,0
2018-07-03T01:34:00.242Z,0
2018-07-03T01:35:00.950Z,0
2018-07-03T01:36:01.713Z,0
2018-07-03T01:37:02.381Z,0
2018-07-03T01:38:03.111Z,0
2018-07-03T01:39:03.827Z,0
2018-07-03T01:40:04.552Z,0
2018-07-03T01:41:05.263Z,0
2018-07-03T01:42:06.003Z,0
2018-07-03T01:43:06.733Z,0
2018-07-03T01:44:07.461Z,0
2018-07-03T01:45:08.430Z,0
2018-07-03T01:46:09.202Z,0
2018-07-03T01:47:09.876Z,0
2018-07-03T01:48:10.597Z,0
2018-07-03T01:49:11.316Z,0
2018-07-03T01:50:12.034Z,0
2018-07-03T01:51:12.764Z,0
2018-07-03T01:52:13.478Z,0
2018-07-03T01:53:14.602Z,0
2018-07-03T01:54:15.319Z,0
2018-07-03T01:55:16.059Z,0
2018-07-03T01:56:16.783Z,0
2018-07-03T01:57:17.510Z,0
2018-07-03T01:58:18.243Z,0
2018-07-03T01:59:18.956Z,0
2018-07-03T02:00:19.684Z,0
2018-07-03T02:01:20.404Z,0
2018-07-03T02:02:21.128Z,0
2018-07-03T02:03:21.951Z,0
2018-07-03T02:04:22.675Z,0
2018-07-03T02:05:23.400Z,0
2018-07-03T02:06:24.122Z,0
2018-07-03T02:07:24.845Z,0
2018-07-03T02:08:25.570Z,0
2018-07-03T02:09:26.307Z,0
2018-07-03T02:10:27.133Z,0
2018-07-03T02:11:27.854Z,0
2018-07-03T02:12:28.587Z,0
2018-07-03T02:13:29.313Z,0
2018-07-03T02:14:30.050Z,0
2018-07-03T02:15:30.817Z,0
2018-07-03T02:16:31.538Z,0
2018-07-03T02:17:32.268Z,0
2018-07-03T02:18:32.986Z,0
2018-07-03T02:19:33.719Z,0
2018-07-03T02:20:34.422Z,0
2018-07-03T02:21:35.246Z,0
2018-07-03T02:22:35.964Z,0
2018-07-03T02:23:36.687Z,4
2018-07-03T02:24:37.650Z,4
2018-07-03T02:25:38.397Z,4
2018-07-03T02:26:39.370Z,4
2018-07-03T02:27:40.082Z,0
2018-07-03T02:28:41.203Z,4
2018-07-03T02:29:41.926Z,4
2018-07-03T02:30:42.634Z,8
2018-07-03T02:31:43.387Z,4
2018-07-03T02:32:44.114Z,8
2018-07-03T02:33:44.890Z,8
2018-07-03T02:34:45.614Z,8
2018-07-03T02:35:46.337Z,12
2018-07-03T02:36:47.060Z,12
2018-07-03T02:37:47.779Z,12
2018-07-03T02:38:48.524Z,12
2018-07-03T02:39:49.242Z,16
2018-07-03T02:40:49.964Z,16
2018-07-03T02:41:50.686Z,20
2018-07-03T02:42:51.400Z,20
2018-07-03T02:43:52.117Z,24
2018-07-03T02:44:53.001Z,28
2018-07-03T02:45:53.732Z,32
2018-07-03T02:46:54.453Z,32
2018-07-03T02:47:55.187Z,40
2018-07-03T02:48:55.897Z,44
2018-07-03T02:49:56.626Z,52
2018-07-03T02:50:57.364Z,56
2018-07-03T02:51:58.092Z,60
2018-07-03T02:52:58.807Z,72
2018-07-03T02:53:59.520Z,76
2018-07-03T02:55:00.590Z,84
2018-07-03T02:56:01.557Z,92
2018-07-03T02:57:02.268Z,108
2018-07-03T02:58:02.983Z,116
2018-07-03T02:59:03.706Z,128
2018-07-03T03:00:04.580Z,140
2018-07-03T03:01:05.309Z,152
2018-07-03T03:02:06.043Z,164
2018-07-03T03:03:06.768Z,180
2018-07-03T03:04:07.502Z,196
2018-07-03T03:05:08.307Z,208
2018-07-03T03:06:09.061Z,224
2018-07-03T03:07:09.899Z,244
2018-07-03T03:08:10.837Z,268
2018-07-03T03:09:11.558Z,284
2018-07-03T03:10:12.325Z,308
2018-07-03T03:11:13.543Z,324
2018-07-03T03:12:14.304Z,352
2018-07-03T03:13:15.159Z,372
2018-07-03T03:14:15.930Z,396
2018-07-03T03:15:16.712Z,420
2018-07-03T03:16:17.637Z,448
2018-07-03T03:17:18.394Z,476
2018-07-03T03:18:19.118Z,500
2018-07-03T03:19:19.853Z,528
2018-07-03T03:20:20.828Z,556
2018-07-03T03:21:21.560Z,584
2018-07-03T03:22:22.342Z,616
2018-07-03T03:23:23.000Z,640
2018-07-03T03:24:23.735Z,672
2018-07-03T03:25:24.460Z,704
2018-07-03T03:26:25.198Z,736
2018-07-03T03:27:25.913Z,764
2018-07-03T03:28:26.636Z,796
2018-07-03T03:29:27.374Z,828
2018-07-03T03:30:28.107Z,860
2018-07-03T03:31:28.830Z,896
2018-07-03T03:32:29.594Z,928
2018-07-03T03:33:30.325Z,960
2018-07-03T03:34:31.043Z,992
2018-07-03T03:35:31.771Z,1024
2018-07-03T03:36:32.495Z,1056
2018-07-03T03:37:33.224Z,1088
2018-07-03T03:38:33.942Z,1120
2018-07-03T03:39:34.666Z,1152
2018-07-03T03:40:35.388Z,1184
2018-07-03T03:41:36.115Z,1216
2018-07-03T03:42:36.839Z,1248
2018-07-03T03:43:37.557Z,1280
2018-07-03T03:44:38.276Z,1312
2018-07-03T03:45:39.002Z,1340
2018-07-03T03:46:39.718Z,1372
2018-07-03T03:47:40.436Z,1404
2018-07-03T03:48:41.155Z,1432
2018-07-03T03:49:41.872Z,1464
2018-07-03T03:50:42.607Z,1492
2018-07-03T03:51:43.333Z,1520
2018-07-03T03:52:44.050Z,1552
2018-07-03T03:53:44.842Z,1580
2018-07-03T03:54:45.551Z,1612
2018-07-03T03:55:46.272Z,1640
2018-07-03T03:56:47.248Z,1672
2018-07-03T03:57:47.961Z,1704
2018-07-03T03:58:48.727Z,1728
2018-07-03T03:59:49.452Z,1760
2018-07-03T04:00:50.433Z,1788
2018-07-03T04:01:51.154Z,1816
2018-07-03T04:02:51.886Z,1840
2018-07-03T04:03:52.605Z,1872
2018-07-03T04:04:53.323Z,1900
2018-07-03T04:05:54.053Z,1924
2018-07-03T04:06:54.780Z,1952
2018-07-03T04:07:55.498Z,1976
2018-07-03T04:08:56.223Z,2008
2018-07-03T04:09:56.940Z,2036
2018-07-03T04:10:57.673Z,2064
2018-07-03T04:11:58.394Z,2088
2018-07-03T04:12:59.127Z,2112
2018-07-03T04:13:59.835Z,2140
2018-07-03T04:15:00.574Z,2160
2018-07-03T04:16:01.342Z,2188
2018-07-03T04:17:02.086Z,2212
2018-07-03T04:18:02.821Z,2236
2018-07-03T04:19:03.617Z,2264
2018-07-03T04:20:04.375Z,2292
2018-07-03T04:21:05.288Z,2316
2018-07-03T04:22:06.145Z,2344
2018-07-03T04:23:06.868Z,2368
2018-07-03T04:24:07.600Z,2396
2018-07-03T04:25:08.336Z,2424
2018-07-03T04:26:09.115Z,2452
2018-07-03T04:27:09.847Z,2476
2018-07-03T04:28:10.584Z,2500
2018-07-03T04:29:11.309Z,2528
2018-07-03T04:30:12.038Z,2556
2018-07-03T04:31:13.123Z,2580
2018-07-03T04:32:13.851Z,2608
2018-07-03T04:33:14.570Z,2632
2018-07-03T04:34:15.293Z,2660
2018-07-03T04:35:16.020Z,2684
2018-07-03T04:36:16.799Z,2712
2018-07-03T04:37:17.525Z,2736
2018-07-03T04:38:18.251Z,2764
2018-07-03T04:39:18.977Z,2788
2018-07-03T04:40:19.700Z,2808
2018-07-03T04:41:20.465Z,2828
2018-07-03T04:42:21.153Z,2852
2018-07-03T04:43:21.881Z,2876
2018-07-03T04:44:22.612Z,2904
2018-07-03T04:45:23.333Z,2932
2018-07-03T04:46:24.065Z,2968
2018-07-03T04:47:24.785Z,3000
2018-07-03T04:48:25.516Z,3040
2018-07-03T04:49:26.244Z,3084
2018-07-03T04:50:26.958Z,3128
2018-07-03T04:51:27.692Z,3160
2018-07-03T04:52:28.410Z,3192
2018-07-03T04:53:29.181Z,3216
2018-07-03T04:54:29.869Z,3240
2018-07-03T04:55:30.597Z,3264
2018-07-03T04:56:31.378Z,3288
2018-07-03T04:57:32.126Z,3316
2018-07-03T04:58:32.851Z,3340
2018-07-03T04:59:33.588Z,3360
2018-07-03T05:00:34.308Z,3384
2018-07-03T05:01:35.048Z,3408
2018-07-03T05:02:35.790Z,3428
2018-07-03T05:03:36.506Z,3448
2018-07-03T05:04:37.247Z,3472
2018-07-03T05:05:37.967Z,3492
2018-07-03T05:06:38.701Z,3516
2018-07-03T05:07:39.831Z,3536
2018-07-03T05:08:40.554Z,3556
2018-07-03T05:09:41.528Z,3576
2018-07-03T05:10:42.549Z,3600
2018-07-03T05:11:43.255Z,3620
2018-07-03T05:12:44.040Z,3644
2018-07-03T05:13:44.752Z,3660
2018-07-03T05:14:45.472Z,3680
2018-07-03T05:15:46.205Z,3700
2018-07-03T05:16:46.938Z,3724
2018-07-03T05:17:47.651Z,3744
2018-07-03T05:18:48.379Z,3764
2018-07-03T05:19:49.352Z,3796
2018-07-03T05:20:50.085Z,3904
2018-07-03T05:21:50.820Z,4944
2018-07-03T05:22:51.549Z,6000
2018-07-03T05:23:52.381Z,7356
2018-07-03T05:24:53.116Z,6356
2018-07-03T05:25:54.096Z,6248
2018-07-03T05:26:54.822Z,7344
2018-07-03T05:27:55.555Z,5648
2018-07-03T05:28:56.275Z,5796
2018-07-03T05:29:57.006Z,8028
2018-07-03T05:30:58.171Z,8332
2018-07-03T05:31:59.458Z,8632
2018-07-03T05:33:00.274Z,7484
2018-07-03T05:34:01.359Z,8124
2018-07-03T05:35:02.083Z,7148
2018-07-03T05:36:03.254Z,7716
2018-07-03T05:37:04.067Z,8644
2018-07-03T05:38:05.097Z,7436
2018-07-03T05:39:05.640Z,8608
2018-07-03T05:40:06.615Z,8268
2018-07-03T05:41:07.458Z,6608
2018-07-03T05:42:08.176Z,8660
2018-07-03T05:43:09.127Z,12744
2018-07-03T05:44:09.793Z,9052
2018-07-03T05:45:10.522Z,7752
2018-07-03T05:46:11.258Z,10536
2018-07-03T05:47:12.007Z,11344
2018-07-03T05:48:12.725Z,10452
2018-07-03T05:49:13.447Z,8756
2018-07-03T05:50:14.204Z,8764
2018-07-03T05:51:14.920Z,7580
2018-07-03T05:52:15.920Z,14064
2018-07-03T05:53:16.642Z,14736
2018-07-03T05:54:17.379Z,13464
2018-07-03T05:55:18.404Z,11992
2018-07-03T05:56:19.417Z,9740
2018-07-03T05:57:20.117Z,10812
2018-07-03T05:58:20.847Z,16416
2018-07-03T05:59:21.583Z,15392
2018-07-03T06:00:22.319Z,11312
2018-07-03T06:01:23.053Z,14228
2018-07-03T06:02:23.778Z,10008
2018-07-03T06:03:24.508Z,5680
2018-07-03T06:04:25.288Z,5072
2018-07-03T06:05:26.032Z,7308
2018-07-03T06:06:26.758Z,7272
2018-07-03T06:07:27.488Z,5376
2018-07-03T06:08:28.215Z,4960
2018-07-03T06:09:29.051Z,4888
2018-07-03T06:10:29.740Z,6808
2018-07-03T06:11:30.463Z,9892
2018-07-03T06:12:31.197Z,7196
2018-07-03T06:13:31.938Z,4840
2018-07-03T06:14:32.713Z,4876
2018-07-03T06:15:33.449Z,9660
2018-07-03T06:16:34.178Z,11004
2018-07-03T06:17:34.902Z,7028
2018-07-03T06:18:35.626Z,13388
2018-07-03T06:19:36.352Z,11504
2018-07-03T06:20:37.099Z,5280
2018-07-03T06:21:37.837Z,7676
2018-07-03T06:22:38.578Z,16896
2018-07-03T06:23:39.319Z,12800
2018-07-03T06:24:40.446Z,10080
2018-07-03T06:25:41.193Z,16448
2018-07-03T06:26:41.915Z,6540
2018-07-03T06:27:42.645Z,6048
2018-07-03T06:28:43.373Z,6676
2018-07-03T06:29:44.259Z,5032
2018-07-03T06:30:45.002Z,4996
2018-07-03T06:31:45.733Z,5000
2018-07-03T06:32:46.460Z,5028
2018-07-03T06:33:47.196Z,9180
2018-07-03T06:34:47.936Z,5092
2018-07-03T06:35:48.673Z,7032
2018-07-03T06:36:49.407Z,10184
2018-07-03T06:37:50.155Z,8864
2018-07-03T06:38:50.892Z,5436
2018-07-03T06:39:51.635Z,6060
2018-07-03T06:40:52.356Z,6132
2018-07-03T06:41:53.096Z,5380
2018-07-03T06:42:53.829Z,5424
2018-07-03T06:43:54.559Z,5392
2018-07-03T06:44:55.304Z,5420
2018-07-03T06:45:56.022Z,5480
2018-07-03T06:46:56.795Z,5504
2018-07-03T06:47:57.780Z,5664
2018-07-03T06:48:58.507Z,17088
2018-07-03T06:49:59.499Z,8340
2018-07-03T06:51:00.235Z,8536
2018-07-03T06:52:00.972Z,17576
2018-07-03T06:53:01.704Z,49216
2018-07-03T06:54:02.440Z,44928
2018-07-03T06:55:03.173Z,34144
2018-07-03T06:56:03.901Z,25152
2018-07-03T06:57:04.631Z,5012
2018-07-03T06:58:05.360Z,29152
2018-07-03T06:59:06.097Z,21376
2018-07-03T07:00:06.838Z,24352
2018-07-03T07:01:07.581Z,16096
2018-07-03T07:02:08.309Z,16768
2018-07-03T07:03:09.041Z,26848
2018-07-03T07:04:10.028Z,26592
2018-07-03T07:05:10.780Z,14444
2018-07-03T07:06:11.524Z,6832
2018-07-03T07:07:12.245Z,7796
2018-07-03T07:08:13.028Z,11988
2018-07-03T07:09:13.820Z,27328
2018-07-03T07:10:14.485Z,34112
2018-07-03T07:11:15.220Z,9300
2018-07-03T07:12:15.949Z,12680
2018-07-03T07:13:16.692Z,25632
2018-07-03T07:14:17.428Z,22144
2018-07-03T07:15:18.172Z,8900
2018-07-03T07:16:18.897Z,15000
2018-07-03T07:17:19.875Z,46400
2018-07-03T07:18:20.601Z,52288
2018-07-03T07:19:21.334Z,57888
2018-07-03T07:20:22.087Z,58048
2018-07-03T07:21:22.823Z,66112
2018-07-03T07:22:23.815Z,61888
2018-07-03T07:23:24.560Z,33440
2018-07-03T07:24:25.291Z,23232
2018-07-03T07:25:26.031Z,49760
2018-07-03T07:26:26.773Z,64000
2018-07-03T07:27:27.525Z,19136
2018-07-03T07:28:28.244Z,9424
2018-07-03T07:29:28.978Z,32800
2018-07-03T07:30:29.716Z,20288
2018-07-03T07:31:30.443Z,44160
2018-07-03T07:32:31.185Z,16320
2018-07-03T07:33:31.920Z,23008
2018-07-03T07:34:32.654Z,46496
2018-07-03T07:35:33.396Z,31808
2018-07-03T07:36:34.135Z,60064
2018-07-03T07:37:34.921Z,65600
2018-07-03T07:38:35.647Z,65056
2018-07-03T07:39:36.382Z,61024
2018-07-03T07:40:37.120Z,60608
2018-07-03T07:41:37.870Z,65376
2018-07-03T07:42:38.755Z,70048
2018-07-03T07:43:39.441Z,69952
2018-07-03T07:44:40.188Z,67968
2018-07-03T07:45:40.922Z,67744
2018-07-03T07:46:41.659Z,69120
2018-07-03T07:47:42.433Z,73248
2018-07-03T07:48:43.180Z,76448
2018-07-03T07:49:43.906Z,76544
2018-07-03T07:50:44.640Z,74816
2018-07-03T07:51:45.384Z,71552
2018-07-03T07:52:46.121Z,70112
2018-07-03T07:53:46.862Z,65408
2018-07-03T07:54:48.210Z,77184
2018-07-03T07:55:48.941Z,78880
2018-07-03T07:56:49.932Z,76608
2018-07-03T07:57:50.668Z,72384
2018-07-03T07:58:51.405Z,69312
2018-07-03T07:59:52.148Z,69984
2018-07-03T08:00:52.879Z,74176
2018-07-03T08:01:53.616Z,73568
2018-07-03T08:02:54.383Z,74816
2018-07-03T08:03:55.122Z,68352
2018-07-03T08:04:55.854Z,66368
2018-07-03T08:05:56.590Z,68672
2018-07-03T08:06:57.329Z,65536
2018-07-03T08:07:58.071Z,69472
2018-07-03T08:08:58.806Z,64928
2018-07-03T08:09:59.603Z,74336
2018-07-03T08:11:00.354Z,79424
2018-07-03T08:12:01.100Z,84128
2018-07-03T08:13:01.835Z,87392
2018-07-03T08:14:02.586Z,86272
2018-07-03T08:15:03.344Z,82432
2018-07-03T08:16:04.079Z,81568
2018-07-03T08:17:04.816Z,81632
2018-07-03T08:18:05.562Z,81280
2018-07-03T08:19:06.333Z,79136
2018-07-03T08:20:07.042Z,78208
2018-07-03T08:21:07.781Z,79328
2018-07-03T08:22:08.511Z,84928
2018-07-03T08:23:09.247Z,88448
2018-07-03T08:24:09.980Z,85888
2018-07-03T08:25:10.715Z,84480
2018-07-03T08:26:11.466Z,81344
2018-07-03T08:27:12.535Z,79552
2018-07-03T08:28:13.265Z,80160
2018-07-03T08:29:14.005Z,81088
2018-07-03T08:30:14.749Z,82240
2018-07-03T08:31:15.484Z,80672
2018-07-03T08:32:16.262Z,78720
2018-07-03T08:33:16.966Z,76992
2018-07-03T08:34:17.763Z,78368
2018-07-03T08:35:18.491Z,82048
2018-07-03T08:36:19.240Z,87616
2018-07-03T08:37:19.975Z,90208
2018-07-03T08:38:20.712Z,88960
2018-07-03T08:39:21.446Z,88288
2018-07-03T08:40:22.193Z,87456
2018-07-03T08:41:22.936Z,89568
2018-07-03T08:42:23.717Z,91776
2018-07-03T08:43:24.415Z,91424
2018-07-03T08:44:25.457Z,84448
2018-07-03T08:45:26.197Z,84704
2018-07-03T08:46:26.934Z,87616
2018-07-03T08:47:27.672Z,92864
2018-07-03T08:48:28.407Z,96224
2018-07-03T08:49:29.147Z,92832
2018-07-03T08:50:29.886Z,71776
2018-07-03T08:51:30.629Z,71136
2018-07-03T08:52:31.376Z,78176
2018-07-03T08:53:32.125Z,83040
2018-07-03T08:54:32.858Z,83968
2018-07-03T08:55:33.610Z,85376
2018-07-03T08:56:34.440Z,85216
2018-07-03T08:57:35.422Z,82816
2018-07-03T08:58:36.170Z,81504
2018-07-03T08:59:36.908Z,82112
2018-07-03T09:00:37.643Z,81888
2018-07-03T09:01:38.376Z,80608
2018-07-03T09:02:39.128Z,78752
2018-07-03T09:03:39.882Z,81120
2018-07-03T09:04:40.597Z,86176
2018-07-03T09:05:41.344Z,91648
2018-07-03T09:06:42.189Z,97248
2018-07-03T09:07:42.914Z,99264
2018-07-03T09:08:43.653Z,97568
2018-07-03T09:09:44.390Z,95648
2018-07-03T09:10:45.136Z,92736
2018-07-03T09:11:45.876Z,86880
2018-07-03T09:12:46.612Z,90560
2018-07-03T09:13:47.347Z,71264
2018-07-03T09:14:48.101Z,89824
2018-07-03T09:15:48.835Z,95872
2018-07-03T09:16:49.576Z,97952
2018-07-03T09:17:50.365Z,88544
2018-07-03T09:18:51.057Z,98496
2018-07-03T09:19:51.794Z,94848
2018-07-03T09:20:52.534Z,93696
2018-07-03T09:21:53.271Z,95904
2018-07-03T09:22:54.011Z,97984
2018-07-03T09:23:54.739Z,97632
2018-07-03T09:24:55.521Z,94400
2018-07-03T09:25:56.259Z,96704
2018-07-03T09:26:56.997Z,99040
2018-07-03T09:27:57.745Z,100864
2018-07-03T09:28:58.482Z,99392
2018-07-03T09:29:59.211Z,96928
2018-07-03T09:30:59.950Z,97664
2018-07-03T09:32:00.697Z,97344
2018-07-03T09:33:01.443Z,95680
2018-07-03T09:34:02.425Z,90944
2018-07-03T09:35:03.363Z,90944
2018-07-03T09:36:04.107Z,95744
2018-07-03T09:37:05.095Z,100768
2018-07-03T09:38:05.833Z,101376
2018-07-03T09:39:06.575Z,96064
2018-07-03T09:40:07.306Z,89568
2018-07-03T09:41:08.045Z,89664
2018-07-03T09:42:08.891Z,94048
2018-07-03T09:43:09.879Z,99392
2018-07-03T09:44:10.613Z,98848
2018-07-03T09:45:11.349Z,98656
2018-07-03T09:46:12.083Z,97696
2018-07-03T09:47:12.815Z,90432
2018-07-03T09:48:13.563Z,96320
2018-07-03T09:49:14.299Z,106400
2018-07-03T09:50:15.034Z,110624
2018-07-03T09:51:15.783Z,110272
2018-07-03T09:52:16.571Z,98016
2018-07-03T09:53:17.297Z,90912
2018-07-03T09:54:18.042Z,92608
2018-07-03T09:55:18.779Z,94688
2018-07-03T09:56:19.517Z,96768
2018-07-03T09:57:20.254Z,86048
2018-07-03T09:58:20.990Z,60640
2018-07-03T09:59:21.732Z,66976
2018-07-03T10:00:22.481Z,52000
2018-07-03T10:01:23.207Z,54080
2018-07-03T10:02:23.946Z,48576
2018-07-03T10:03:24.695Z,35968
2018-07-03T10:04:25.432Z,39136
2018-07-03T10:05:26.422Z,44128
2018-07-03T10:06:27.171Z,40608
2018-07-03T10:07:27.903Z,40384
2018-07-03T10:08:28.660Z,46496
2018-07-03T10:09:29.385Z,41248
2018-07-03T10:10:30.126Z,58944
2018-07-03T10:11:30.867Z,72352
2018-07-03T10:12:31.604Z,80512
2018-07-03T10:13:32.359Z,78624
2018-07-03T10:14:33.102Z,74464
2018-07-03T10:15:33.847Z,74752
2018-07-03T10:16:34.587Z,82400
2018-07-03T10:17:35.326Z,70368
2018-07-03T10:18:36.070Z,67232
2018-07-03T10:19:36.812Z,63584
2018-07-03T10:20:37.553Z,58816
2018-07-03T10:21:38.283Z,57568
2018-07-03T10:22:39.039Z,56864
2018-07-03T10:23:39.762Z,53440
2018-07-03T10:24:40.854Z,51168
2018-07-03T10:25:41.598Z,48320
2018-07-03T10:26:42.337Z,48704
2018-07-03T10:27:43.076Z,47456
2018-07-03T10:28:43.813Z,47072
2018-07-03T10:29:44.564Z,42400
2018-07-03T10:30:45.302Z,33632
2018-07-03T10:31:46.052Z,36672
2018-07-03T10:32:46.789Z,39328
2018-07-03T10:33:47.522Z,38432
2018-07-03T10:34:48.266Z,35456
2018-07-03T10:35:49.008Z,38912
2018-07-03T10:36:49.742Z,46432
2018-07-03T10:37:50.478Z,47456
2018-07-03T10:38:51.220Z,53088
2018-07-03T10:39:52.317Z,57440
2018-07-03T10:40:53.054Z,44928
2018-07-03T10:41:53.793Z,29472
2018-07-03T10:42:54.519Z,26912
2018-07-03T10:43:55.260Z,25312
2018-07-03T10:44:55.990Z,26688
2018-07-03T10:45:56.736Z,27168
2018-07-03T10:46:57.459Z,45024
2018-07-03T10:47:58.353Z,53152
2018-07-03T10:48:59.093Z,54976
2018-07-03T10:49:59.848Z,82272
2018-07-03T10:51:00.587Z,75840
2018-07-03T10:52:01.323Z,85824
2018-07-03T10:53:02.218Z,103776
2018-07-03T10:54:03.271Z,121600
2018-07-03T10:55:03.943Z,118368
2018-07-03T10:56:04.695Z,112768
2018-07-03T10:57:05.428Z,108448
2018-07-03T10:58:06.163Z,106848
2018-07-03T10:59:06.901Z,110048
2018-07-03T11:00:07.642Z,113248
2018-07-03T11:01:08.368Z,116992
2018-07-03T11:02:09.112Z,115904
2018-07-03T11:03:09.852Z,118240
2018-07-03T11:04:10.587Z,115872
2018-07-03T11:05:11.380Z,116480
2018-07-03T11:06:12.376Z,114368
2018-07-03T11:07:13.112Z,71552
2018-07-03T11:08:13.862Z,77600
2018-07-03T11:09:14.593Z,120896
2018-07-03T11:10:15.624Z,123264
2018-07-03T11:11:16.366Z,95104
2018-07-03T11:12:17.113Z,72352
2018-07-03T11:13:17.859Z,96928
2018-07-03T11:14:18.595Z,108544
2018-07-03T11:15:19.328Z,111456
2018-07-03T11:16:20.313Z,118144
2018-07-03T11:17:21.056Z,121792
2018-07-03T11:18:21.795Z,124416
2018-07-03T11:19:22.567Z,123040
2018-07-03T11:20:23.419Z,122208
2018-07-03T11:21:24.153Z,114432
2018-07-03T11:22:24.903Z,100000
2018-07-03T11:23:25.645Z,88928
2018-07-03T11:24:26.389Z,90048
2018-07-03T11:25:27.182Z,80032
2018-07-03T11:26:27.910Z,84672
2018-07-03T11:27:28.655Z,77760
2018-07-03T11:28:29.394Z,102976
2018-07-03T11:29:30.145Z,100960
2018-07-03T11:30:30.875Z,85504
2018-07-03T11:31:31.632Z,101792
2018-07-03T11:32:32.365Z,92544
2018-07-03T11:33:33.117Z,113568
2018-07-03T11:34:33.852Z,112928
2018-07-03T11:35:34.591Z,89152
2018-07-03T11:36:35.323Z,101248
2018-07-03T11:37:36.084Z,108672
2018-07-03T11:38:36.828Z,116224
2018-07-03T11:39:37.585Z,112352
2018-07-03T11:40:38.328Z,89568
2018-07-03T11:41:39.319Z,82368
2018-07-03T11:42:40.060Z,73568
2018-07-03T11:43:40.802Z,76768
2018-07-03T11:44:41.598Z,81632
2018-07-03T11:45:42.309Z,58016
2018-07-03T11:46:43.056Z,78592
2018-07-03T11:47:43.801Z,68416
2018-07-03T11:48:44.558Z,34880
2018-07-03T11:49:45.297Z,63840
2018-07-03T11:50:46.040Z,87008
2018-07-03T11:51:46.790Z,90240
2018-07-03T11:52:47.528Z,66560
2018-07-03T11:53:48.371Z,85120
2018-07-03T11:54:49.115Z,81568
2018-07-03T11:55:49.848Z,88064
2018-07-03T11:56:50.835Z,93152
2018-07-03T11:57:51.582Z,102944
2018-07-03T11:58:53.021Z,105664
2018-07-03T11:59:54.008Z,106368
2018-07-03T12:00:54.748Z,105536
2018-07-03T12:01:55.499Z,105120
2018-07-03T12:02:56.243Z,104928
2018-07-03T12:03:56.978Z,99552
2018-07-03T12:04:57.714Z,99520
2018-07-03T12:05:58.453Z,96736
2018-07-03T12:06:59.202Z,120640
2018-07-03T12:07:59.952Z,118528
2018-07-03T12:09:00.850Z,111744
2018-07-03T12:10:01.596Z,74176
2018-07-03T12:11:02.347Z,105792
2018-07-03T12:12:03.357Z,89632
2018-07-03T12:13:04.091Z,112864
2018-07-03T12:14:04.824Z,91008
2018-07-03T12:15:05.591Z,100416
2018-07-03T12:16:06.337Z,111392
2018-07-03T12:17:07.089Z,86336
2018-07-03T12:18:07.824Z,45440
2018-07-03T12:19:08.566Z,27744
2018-07-03T12:20:09.327Z,21664
2018-07-03T12:21:10.075Z,21120
2018-07-03T12:22:10.831Z,20352
2018-07-03T12:23:11.576Z,20128
2018-07-03T12:24:12.310Z,19616
2018-07-03T12:25:13.052Z,19712
2018-07-03T12:26:13.784Z,23584
2018-07-03T12:27:14.780Z,28928
2018-07-03T12:28:15.512Z,25056
2018-07-03T12:29:16.344Z,26816
2018-07-03T12:30:17.005Z,27936
2018-07-03T12:31:17.748Z,35648
2018-07-03T12:32:18.497Z,37440
2018-07-03T12:33:19.234Z,48160
2018-07-03T12:34:19.978Z,57088
2018-07-03T12:35:20.720Z,48992
2018-07-03T12:36:21.476Z,50656
2018-07-03T12:37:22.268Z,38336
2018-07-03T12:38:23.269Z,33120
2018-07-03T12:39:24.021Z,25632
2018-07-03T12:40:24.745Z,24992
2018-07-03T12:41:25.485Z,26592
2018-07-03T12:42:26.285Z,27648
2018-07-03T12:43:27.022Z,26560
2018-07-03T12:44:27.767Z,26400
2018-07-03T12:45:28.507Z,24128
2018-07-03T12:46:29.244Z,23712
2018-07-03T12:47:29.988Z,25568
2018-07-03T12:48:30.731Z,26016
2018-07-03T12:49:31.472Z,25024
2018-07-03T12:50:32.214Z,24960
2018-07-03T12:51:33.055Z,28672
2018-07-03T12:52:33.796Z,32000
2018-07-03T12:53:34.523Z,42464
2018-07-03T12:54:35.263Z,52800
2018-07-03T12:55:36.006Z,50880
2018-07-03T12:56:37.015Z,51552
2018-07-03T12:57:37.735Z,39968
2018-07-03T12:58:38.464Z,34592
2018-07-03T12:59:39.350Z,39040
2018-07-03T13:00:40.101Z,40480
2018-07-03T13:01:40.844Z,57344
2018-07-03T13:02:41.840Z,79808
2018-07-03T13:03:42.581Z,95072
2018-07-03T13:04:43.324Z,99648
2018-07-03T13:05:44.060Z,88800
2018-07-03T13:06:45.064Z,82624
2018-07-03T13:07:45.809Z,80128
2018-07-03T13:08:46.554Z,82400
2018-07-03T13:09:47.290Z,84352
2018-07-03T13:10:48.041Z,85984
2018-07-03T13:11:48.765Z,89088
2018-07-03T13:12:49.504Z,84864
2018-07-03T13:13:50.245Z,88288
2018-07-03T13:14:50.981Z,83872
2018-07-03T13:15:51.747Z,79296
2018-07-03T13:16:52.465Z,72096
2018-07-03T13:17:53.212Z,81920
2018-07-03T13:18:53.940Z,81856
2018-07-03T13:19:54.733Z,66496
2018-07-03T13:20:55.467Z,75104
2018-07-03T13:21:56.211Z,97056
2018-07-03T13:22:56.943Z,95424
2018-07-03T13:23:57.678Z,93344
2018-07-03T13:24:58.421Z,88640
2018-07-03T13:25:59.566Z,87104
2018-07-03T13:27:00.301Z,88896
2018-07-03T13:28:01.289Z,92704
2018-07-03T13:29:02.284Z,96288
2018-07-03T13:30:03.090Z,97632
2018-07-03T13:31:03.753Z,98528